createdAt,value
2017-11-26T00:01:28.464Z,3.97
2017-11-26T00:03:55.929Z,4.17
2017-11-26T00:06:23.389Z,4.40
2017-11-26T00:08:50.838Z,4.03
2017-11-26T00:11:18.303Z,3.80
2017-11-26T00:13:45.768Z,4.13
2017-11-26T00:16:13.267Z,3.93
2017-11-26T00:18:40.751Z,3.70
2017-11-26T00:21:08.981Z,3.63
2017-11-26T00:23:36.447Z,4.03
2017-11-26T00:26:03.904Z,4.00
2017-11-26T00:28:31.370Z,4.70
2017-11-26T00:30:58.832Z,5.13
2017-11-26T00:33:26.308Z,4.60
2017-11-26T00:35:54.528Z,4.30
2017-11-26T00:38:23.771Z,4.90
2017-11-26T00:40:51.244Z,4.60
2017-11-26T00:43:18.705Z,5.10
2017-11-26T00:45:46.170Z,4.63
2017-11-26T00:48:13.617Z,9.17
2017-11-26T00:50:41.125Z,12.90
2017-11-26T00:53:09.358Z,13.67
2017-11-26T00:55:36.849Z,12.53
2017-11-26T00:58:04.328Z,11.10
2017-11-26T01:00:31.798Z,8.83
2017-11-26T01:03:00.029Z,8.80
2017-11-26T01:05:27.489Z,8.53
2017-11-26T01:07:55.247Z,6.30
2017-11-26T01:10:22.708Z,5.80
2017-11-26T01:12:50.170Z,5.60
2017-11-26T01:15:17.634Z,4.67
2017-11-26T01:17:45.098Z,5.33
2017-11-26T01:20:12.556Z,5.20
2017-11-26T01:22:42.872Z,5.73
2017-11-26T01:25:10.343Z,5.23
2017-11-26T01:27:37.810Z,5.73
2017-11-26T01:30:05.270Z,4.57
2017-11-26T01:32:32.742Z,4.60
2017-11-26T01:35:00.206Z,4.30
2017-11-26T01:37:27.703Z,4.40
2017-11-26T01:39:55.154Z,4.40
2017-11-26T01:42:22.605Z,4.60
2017-11-26T01:44:50.070Z,4.47
2017-11-26T01:47:17.534Z,4.43
2017-11-26T01:49:45.388Z,4.60
2017-11-26T01:52:12.848Z,4.83
2017-11-26T01:54:40.310Z,4.83
2017-11-26T01:57:07.779Z,4.83
2017-11-26T01:59:35.257Z,4.60
2017-11-26T02:02:02.726Z,5.10
2017-11-26T02:04:30.971Z,5.20
2017-11-26T02:06:58.421Z,4.30
2017-11-26T02:09:25.960Z,4.90
2017-11-26T02:11:53.410Z,5.10
2017-11-26T02:14:20.890Z,4.70
2017-11-26T02:16:49.120Z,4.80
2017-11-26T02:19:16.578Z,4.90
2017-11-26T02:21:44.041Z,4.43
2017-11-26T02:24:11.523Z,4.80
2017-11-26T02:26:38.990Z,4.47
2017-11-26T02:29:06.454Z,4.60
2017-11-26T02:31:45.708Z,4.60
2017-11-26T02:34:25.206Z,4.10
2017-11-26T02:36:52.668Z,4.37
2017-11-26T02:39:20.140Z,4.80
2017-11-26T02:41:47.591Z,4.73
2017-11-26T02:44:15.417Z,4.10
2017-11-26T02:46:44.349Z,4.47
2017-11-26T02:49:11.831Z,4.57
2017-11-26T02:51:39.291Z,4.43
2017-11-26T02:54:06.762Z,3.90
2017-11-26T02:56:34.233Z,3.80
2017-11-26T02:59:01.710Z,3.37
2017-11-26T03:01:29.947Z,3.63
2017-11-26T03:03:57.414Z,3.47
2017-11-26T03:06:24.886Z,3.43
2017-11-26T03:08:52.354Z,3.40
2017-11-26T03:11:19.840Z,3.27
2017-11-26T03:13:48.073Z,3.70
2017-11-26T03:16:15.536Z,3.30
2017-11-26T03:18:42.998Z,3.37
2017-11-26T03:21:10.476Z,3.10
2017-11-26T03:23:37.931Z,3.10
2017-11-26T03:26:05.401Z,3.30
2017-11-26T03:28:32.860Z,3.40
2017-11-26T03:31:00.415Z,2.97
2017-11-26T03:33:27.860Z,3.30
2017-11-26T03:35:55.330Z,3.47
2017-11-26T03:38:22.796Z,3.43
2017-11-26T03:40:50.299Z,3.30
2017-11-26T03:43:18.533Z,3.00
2017-11-26T03:45:46.047Z,2.63
2017-11-26T03:48:13.518Z,3.03
2017-11-26T03:50:40.985Z,2.90
2017-11-26T03:53:08.435Z,2.70
2017-11-26T03:55:36.685Z,2.60
2017-11-26T03:58:04.149Z,2.70
2017-11-26T04:00:31.643Z,2.30
2017-11-26T04:02:59.123Z,3.17
2017-11-26T04:05:26.589Z,2.60
2017-11-26T04:07:54.046Z,2.60
2017-11-26T04:10:21.487Z,2.63
2017-11-26T04:12:49.722Z,2.90
2017-11-26T04:15:17.197Z,3.30
2017-11-26T04:17:44.681Z,2.90
2017-11-26T04:20:12.944Z,3.30
2017-11-26T04:22:40.425Z,3.57
2017-11-26T04:25:08.666Z,3.73
2017-11-26T04:27:36.146Z,3.70
2017-11-26T04:30:03.594Z,3.50
2017-11-26T04:32:31.076Z,3.60
2017-11-26T04:34:58.534Z,4.10
2017-11-26T04:37:26.023Z,4.20
2017-11-26T04:39:54.249Z,4.00
2017-11-26T04:42:21.739Z,4.33
2017-11-26T04:44:49.203Z,4.33
2017-11-26T04:47:16.698Z,4.30
2017-11-26T04:49:44.935Z,4.73
2017-11-26T04:52:12.420Z,4.83
2017-11-26T04:54:39.899Z,5.17
2017-11-26T04:57:08.148Z,5.10
2017-11-26T04:59:35.612Z,4.97
2017-11-26T05:02:03.070Z,5.10
2017-11-26T05:04:30.535Z,5.67
2017-11-26T05:06:58.014Z,4.87
2017-11-26T05:09:26.089Z,4.67
2017-11-26T05:11:53.592Z,4.67
2017-11-26T05:14:21.039Z,5.17
2017-11-26T05:16:49.649Z,4.87
2017-11-26T05:19:17.110Z,4.70
2017-11-26T05:21:44.579Z,5.13
2017-11-26T05:24:12.074Z,5.07
2017-11-26T05:26:39.526Z,4.53
2017-11-26T05:29:07.004Z,4.90
2017-11-26T05:31:34.474Z,5.17
2017-11-26T05:34:02.736Z,4.53
2017-11-26T05:36:30.217Z,4.80
2017-11-26T05:38:57.682Z,4.57
2017-11-26T05:41:25.910Z,4.70
2017-11-26T05:43:53.407Z,4.33
2017-11-26T05:46:20.878Z,4.90
2017-11-26T05:48:48.346Z,4.50
2017-11-26T05:51:15.820Z,4.70
2017-11-26T05:53:44.124Z,4.33
2017-11-26T05:56:12.345Z,4.20
2017-11-26T05:58:39.841Z,4.43
2017-11-26T06:01:07.297Z,4.47
2017-11-26T06:03:35.542Z,4.30
2017-11-26T06:06:03.033Z,4.13
2017-11-26T06:08:31.403Z,4.67
2017-11-26T06:10:58.867Z,4.33
2017-11-26T06:13:26.339Z,4.37
2017-11-26T06:15:53.790Z,4.40
2017-11-26T06:18:21.276Z,4.40
2017-11-26T06:20:48.759Z,4.53
2017-11-26T06:23:16.250Z,4.67
2017-11-26T06:25:43.721Z,5.03
2017-11-26T06:28:11.195Z,4.07
2017-11-26T06:30:38.645Z,4.80
2017-11-26T06:33:06.141Z,4.87
2017-11-26T06:35:33.611Z,4.93
2017-11-26T06:38:01.093Z,4.73
2017-11-26T06:40:29.341Z,4.70
2017-11-26T06:42:57.561Z,5.53
2017-11-26T06:45:25.052Z,5.10
2017-11-26T06:47:52.523Z,4.67
2017-11-26T06:50:19.986Z,5.23
2017-11-26T06:52:47.442Z,5.33
2017-11-26T06:55:14.926Z,5.07
2017-11-26T06:57:42.391Z,5.27
2017-11-26T07:00:09.868Z,4.90
2017-11-26T07:02:37.344Z,4.90
2017-11-26T07:05:04.812Z,4.33
2017-11-26T07:07:33.037Z,4.40
2017-11-26T07:10:00.494Z,4.57
2017-11-26T07:12:27.952Z,5.07
2017-11-26T07:14:55.418Z,5.70
2017-11-26T07:17:22.882Z,5.57
2017-11-26T07:19:50.372Z,5.27
2017-11-26T07:22:17.827Z,5.03
2017-11-26T07:24:45.285Z,5.50
2017-11-26T07:27:12.760Z,6.00
2017-11-26T07:29:40.218Z,5.07
2017-11-26T07:32:07.702Z,6.03
2017-11-26T07:34:35.159Z,5.67
2017-11-26T07:37:02.630Z,6.30
2017-11-26T07:39:30.094Z,6.53
2017-11-26T07:41:57.558Z,6.90
2017-11-26T07:44:25.027Z,6.70
2017-11-26T07:46:53.243Z,6.60
2017-11-26T07:49:20.756Z,5.83
2017-11-26T07:51:48.220Z,6.97
2017-11-26T07:54:15.690Z,6.60
2017-11-26T07:56:43.937Z,7.43
2017-11-26T07:59:11.408Z,6.97
2017-11-26T08:01:38.876Z,6.63
2017-11-26T08:04:06.342Z,7.17
2017-11-26T08:06:33.814Z,7.00
2017-11-26T08:09:01.274Z,6.93
2017-11-26T08:11:28.765Z,7.77
2017-11-26T08:13:56.996Z,7.27
2017-11-26T08:16:24.464Z,7.73
2017-11-26T08:18:51.942Z,8.17
2017-11-26T08:21:19.420Z,7.57
2017-11-26T08:23:47.649Z,7.33
2017-11-26T08:26:15.111Z,7.07
2017-11-26T08:28:42.581Z,7.23
2017-11-26T08:31:10.815Z,6.87
2017-11-26T08:33:39.034Z,6.43
2017-11-26T08:36:06.496Z,6.90
2017-11-26T08:38:33.950Z,6.10
2017-11-26T08:41:01.437Z,7.20
2017-11-26T08:43:28.894Z,7.10
2017-11-26T08:45:56.370Z,6.73
2017-11-26T08:48:23.818Z,6.63
2017-11-26T08:50:51.327Z,7.60
2017-11-26T08:53:19.565Z,7.17
2017-11-26T08:55:47.035Z,7.77
2017-11-26T08:58:14.515Z,6.97
2017-11-26T09:00:41.979Z,7.30
2017-11-26T09:03:09.451Z,6.90
2017-11-26T09:05:36.914Z,7.00
2017-11-26T09:08:05.169Z,7.13
2017-11-26T09:10:32.630Z,6.27
2017-11-26T09:13:01.074Z,6.83
2017-11-26T09:15:28.555Z,7.47
2017-11-26T09:17:56.012Z,6.10
2017-11-26T09:20:23.465Z,7.60
2017-11-26T09:22:50.931Z,6.90
2017-11-26T09:25:18.387Z,7.93
2017-11-26T09:27:46.119Z,7.13
2017-11-26T09:30:14.315Z,7.33
2017-11-26T09:32:41.808Z,7.60
2017-11-26T09:35:09.261Z,7.73
2017-11-26T09:37:36.722Z,7.37
2017-11-26T09:40:04.186Z,7.60
2017-11-26T09:42:31.665Z,7.80
2017-11-26T09:44:59.134Z,7.00
2017-11-26T09:47:26.600Z,7.13
2017-11-26T09:49:54.064Z,6.77
2017-11-26T09:52:21.587Z,6.50
2017-11-26T09:54:49.048Z,6.27
2017-11-26T09:57:16.498Z,6.93
2017-11-26T09:59:44.747Z,6.83
2017-11-26T10:02:12.211Z,6.27
2017-11-26T10:04:39.682Z,7.10
2017-11-26T10:07:07.143Z,6.50
2017-11-26T10:09:35.349Z,6.47
2017-11-26T10:12:03.583Z,6.50
2017-11-26T10:14:31.067Z,6.23
2017-11-26T10:16:58.526Z,6.53
2017-11-26T10:19:25.988Z,6.23
2017-11-26T10:21:53.461Z,6.30
2017-11-26T10:24:20.915Z,6.20
2017-11-26T10:26:48.392Z,7.20
2017-11-26T10:29:15.864Z,6.63
2017-11-26T10:31:44.094Z,6.10
2017-11-26T10:34:11.579Z,6.37
2017-11-26T10:36:39.051Z,6.10
2017-11-26T10:39:06.524Z,6.13
2017-11-26T10:41:34.768Z,6.37
2017-11-26T10:44:02.248Z,6.53
2017-11-26T10:46:29.765Z,6.30
2017-11-26T10:48:57.253Z,5.53
2017-11-26T10:51:24.717Z,5.40
2017-11-26T10:53:52.184Z,5.10
2017-11-26T10:56:19.654Z,3.80
2017-11-26T10:58:47.136Z,3.20
2017-11-26T11:01:15.382Z,3.97
2017-11-26T11:03:42.842Z,3.93
2017-11-26T11:06:11.066Z,4.80
2017-11-26T11:08:39.314Z,4.30
2017-11-26T11:11:06.781Z,5.40
2017-11-26T11:13:34.260Z,4.10
2017-11-26T11:16:01.727Z,4.43
2017-11-26T11:18:29.191Z,4.73
2017-11-26T11:20:56.666Z,4.43
2017-11-26T11:23:24.894Z,4.53
2017-11-26T11:25:52.348Z,3.30
2017-11-26T11:28:19.811Z,2.90
2017-11-26T11:30:47.273Z,3.10
2017-11-26T11:33:14.727Z,4.00
2017-11-26T11:35:42.199Z,3.50
2017-11-26T11:38:09.678Z,3.07
2017-11-26T11:40:37.168Z,2.80
2017-11-26T11:43:05.398Z,2.80
2017-11-26T11:45:32.888Z,2.70
2017-11-26T11:48:00.348Z,2.73
2017-11-26T11:50:27.807Z,2.80
2017-11-26T11:52:55.266Z,2.73
2017-11-26T11:55:23.492Z,3.00
2017-11-26T11:57:50.950Z,2.93
2017-11-26T12:00:19.184Z,2.73
2017-11-26T12:02:46.638Z,3.00
2017-11-26T12:05:14.100Z,3.07
2017-11-26T12:07:41.589Z,3.47
2017-11-26T12:10:09.046Z,3.23
2017-11-26T12:12:36.505Z,2.90
2017-11-26T12:15:03.966Z,3.73
2017-11-26T12:17:32.183Z,3.20
2017-11-26T12:20:00.427Z,2.57
2017-11-26T12:22:27.888Z,2.90
2017-11-26T12:24:55.358Z,2.40
2017-11-26T12:27:22.843Z,2.50
2017-11-26T12:29:50.309Z,2.20
2017-11-26T12:32:17.775Z,2.60
2017-11-26T12:34:46.022Z,2.73
2017-11-26T12:37:14.302Z,2.20
2017-11-26T12:39:41.761Z,2.20
2017-11-26T12:42:09.224Z,2.43
2017-11-26T12:44:36.683Z,2.23
2017-11-26T12:47:04.145Z,2.50
2017-11-26T12:49:31.619Z,2.33
2017-11-26T12:51:59.074Z,2.40
2017-11-26T12:54:26.565Z,2.30
2017-11-26T12:56:54.012Z,2.40
2017-11-26T12:59:21.467Z,3.00
2017-11-26T13:01:48.922Z,2.17
2017-11-26T13:04:16.411Z,2.67
2017-11-26T13:06:43.882Z,2.67
2017-11-26T13:09:12.122Z,2.70
2017-11-26T13:11:39.593Z,2.77
2017-11-26T13:14:07.064Z,2.43
2017-11-26T13:16:34.537Z,2.70
2017-11-26T13:19:02.004Z,2.83
2017-11-26T13:21:29.464Z,2.60
2017-11-26T13:23:56.928Z,2.60
2017-11-26T13:26:24.398Z,2.40
2017-11-26T13:28:51.856Z,2.60
2017-11-26T13:31:20.091Z,2.50
2017-11-26T13:33:47.553Z,2.40
2017-11-26T13:36:15.033Z,2.40
2017-11-26T13:38:42.491Z,2.43
2017-11-26T13:41:09.963Z,2.53
2017-11-26T13:43:37.424Z,2.43
2017-11-26T13:46:04.903Z,2.63
2017-11-26T13:48:32.366Z,2.83
2017-11-26T13:50:59.826Z,3.10
2017-11-26T13:53:27.283Z,4.00
2017-11-26T13:55:54.745Z,3.37
2017-11-26T13:58:22.220Z,3.77
2017-11-26T14:00:49.671Z,2.87
2017-11-26T14:03:17.141Z,2.70
2017-11-26T14:05:44.627Z,3.23
2017-11-26T14:08:12.097Z,3.70
2017-11-26T14:10:40.319Z,4.00
2017-11-26T14:13:07.788Z,3.00
2017-11-26T14:15:35.246Z,3.77
2017-11-26T14:18:02.719Z,3.37
2017-11-26T14:20:30.185Z,2.50
2017-11-26T14:22:57.643Z,2.90
2017-11-26T14:25:25.107Z,3.00
2017-11-26T14:27:52.586Z,2.40
2017-11-26T14:30:20.049Z,3.53
2017-11-26T14:32:47.875Z,2.60
2017-11-26T14:35:15.334Z,2.90
2017-11-26T14:37:42.821Z,2.60
2017-11-26T14:40:10.286Z,2.40
2017-11-26T14:42:37.752Z,2.97
2017-11-26T14:45:05.217Z,6.43
2017-11-26T14:47:32.686Z,4.67
2017-11-26T14:50:00.160Z,6.57
2017-11-26T14:52:27.626Z,3.33
2017-11-26T14:54:55.067Z,3.57
2017-11-26T14:57:22.548Z,3.63
2017-11-26T14:59:50.024Z,3.17
2017-11-26T15:02:18.253Z,3.30
2017-11-26T15:04:45.722Z,2.90
2017-11-26T15:07:13.223Z,3.57
2017-11-26T15:09:41.491Z,3.43
2017-11-26T15:12:08.952Z,3.33
2017-11-26T15:14:36.420Z,3.47
2017-11-26T15:17:03.877Z,5.00
2017-11-26T15:19:31.357Z,4.20
2017-11-26T15:21:59.586Z,7.27
2017-11-26T15:24:27.063Z,7.37
2017-11-26T15:26:54.519Z,4.10
2017-11-26T15:29:21.995Z,4.70
2017-11-26T15:31:49.446Z,5.03
2017-11-26T15:34:16.944Z,33.97
2017-11-26T15:36:44.396Z,3.77
2017-11-26T15:39:11.879Z,2.87
2017-11-26T15:41:40.116Z,4.67
2017-11-26T15:44:07.591Z,6.83
2017-11-26T15:46:35.052Z,7.07
2017-11-26T15:49:02.517Z,5.10
2017-11-26T15:51:29.986Z,9.40
2017-11-26T15:53:57.452Z,7.63
2017-11-26T15:56:24.910Z,5.87
2017-11-26T15:58:52.374Z,7.07
2017-11-26T16:01:19.835Z,5.17
2017-11-26T16:03:47.323Z,4.43
2017-11-26T16:06:15.562Z,4.63
2017-11-26T16:08:43.049Z,3.97
2017-11-26T16:11:10.490Z,5.80
2017-11-26T16:13:37.955Z,5.03
2017-11-26T16:16:05.409Z,5.93
2017-11-26T16:18:32.916Z,4.30
2017-11-26T16:21:01.341Z,3.67
2017-11-26T16:23:28.807Z,3.27
2017-11-26T16:25:56.402Z,3.30
2017-11-26T16:28:23.860Z,3.30
2017-11-26T16:30:51.361Z,3.37
2017-11-26T16:33:19.576Z,2.90
2017-11-26T16:35:47.018Z,2.93
2017-11-26T16:38:14.482Z,2.73
2017-11-26T16:40:42.008Z,2.77
2017-11-26T16:43:09.481Z,3.00
2017-11-26T16:45:37.713Z,2.67
2017-11-26T16:48:05.181Z,4.37
2017-11-26T16:50:32.660Z,9.37
2017-11-26T16:53:00.115Z,5.97
2017-11-26T16:55:27.584Z,5.37
2017-11-26T16:57:55.037Z,3.70
2017-11-26T17:00:22.509Z,3.73
2017-11-26T17:02:49.955Z,3.60
2017-11-26T17:05:17.423Z,3.00
2017-11-26T17:07:44.884Z,4.27
2017-11-26T17:10:12.364Z,8.60
2017-11-26T17:12:39.829Z,10.80
2017-11-26T17:15:07.327Z,15.87
2017-11-26T17:17:34.782Z,14.30
2017-11-26T17:20:03.011Z,16.73
2017-11-26T17:22:30.485Z,20.13
2017-11-26T17:24:57.955Z,21.57
2017-11-26T17:27:25.428Z,16.00
2017-11-26T17:29:52.900Z,12.87
2017-11-26T17:32:21.968Z,24.07
2017-11-26T17:34:49.430Z,10.93
2017-11-26T17:37:16.905Z,11.00
2017-11-26T17:39:44.367Z,8.77
2017-11-26T17:42:12.053Z,6.33
2017-11-26T17:44:40.281Z,6.90
2017-11-26T17:47:07.754Z,5.93
2017-11-26T17:49:35.216Z,4.67
2017-11-26T17:52:02.694Z,7.17
2017-11-26T17:54:30.145Z,7.60
2017-11-26T17:56:57.609Z,9.00
2017-11-26T17:59:25.141Z,7.83
2017-11-26T18:01:52.627Z,11.47
2017-11-26T18:04:20.098Z,11.40
2017-11-26T18:06:47.579Z,11.33
2017-11-26T18:09:15.052Z,11.10
2017-11-26T18:11:42.527Z,8.90
2017-11-26T18:14:10.763Z,5.43
2017-11-26T18:16:38.259Z,4.40
2017-11-26T18:19:05.739Z,5.17
2017-11-26T18:21:33.989Z,3.57
2017-11-26T18:24:01.439Z,4.57
2017-11-26T18:26:28.916Z,3.83
2017-11-26T18:28:56.380Z,3.13
2017-11-26T18:31:23.882Z,3.00
2017-11-26T18:33:51.339Z,3.30
2017-11-26T18:36:18.857Z,3.40
2017-11-26T18:38:46.318Z,2.63
2017-11-26T18:41:13.839Z,2.80
2017-11-26T18:43:41.280Z,3.33
2017-11-26T18:46:09.518Z,3.40
2017-11-26T18:48:36.976Z,2.90
2017-11-26T18:51:04.425Z,2.60
2017-11-26T18:53:31.916Z,3.40
2017-11-26T18:55:59.364Z,2.73
2017-11-26T18:58:26.828Z,2.70
2017-11-26T19:00:54.304Z,3.23
2017-11-26T19:03:21.791Z,4.40
2017-11-26T19:05:49.262Z,3.63
2017-11-26T19:08:17.503Z,3.97
2017-11-26T19:10:44.982Z,6.63
2017-11-26T19:13:12.501Z,6.67
2017-11-26T19:15:39.992Z,6.87
2017-11-26T19:18:07.822Z,7.03
2017-11-26T19:20:35.280Z,4.33
2017-11-26T19:23:02.756Z,4.10
2017-11-26T19:25:30.236Z,3.60
2017-11-26T19:27:57.723Z,2.97
2017-11-26T19:30:25.184Z,3.10
2017-11-26T19:32:52.666Z,3.70
2017-11-26T19:35:20.145Z,3.60
2017-11-26T19:37:48.426Z,3.67
2017-11-26T19:40:16.707Z,3.50
2017-11-26T19:42:45.012Z,3.70
2017-11-26T19:45:12.520Z,3.70
2017-11-26T19:47:39.986Z,4.30
2017-11-26T19:50:07.624Z,4.50
2017-11-26T19:52:35.131Z,3.73
2017-11-26T19:55:02.605Z,4.37
2017-11-26T19:57:30.828Z,3.40
2017-11-26T19:59:58.310Z,4.07
2017-11-26T20:02:25.819Z,4.80
2017-11-26T20:04:54.060Z,4.60
2017-11-26T20:07:21.523Z,4.50
2017-11-26T20:09:49.023Z,3.93
2017-11-26T20:12:17.288Z,3.43
2017-11-26T20:14:44.853Z,3.80
2017-11-26T20:17:12.326Z,3.27
2017-11-26T20:19:39.806Z,3.57
2017-11-26T20:22:07.299Z,4.00
2017-11-26T20:24:34.784Z,3.90
2017-11-26T20:27:02.329Z,4.10
2017-11-26T20:29:29.820Z,3.80
2017-11-26T20:31:58.049Z,4.20
2017-11-26T20:34:25.549Z,4.77
2017-11-26T20:36:53.010Z,4.70
2017-11-26T20:39:20.548Z,4.70
2017-11-26T20:41:48.037Z,5.00
2017-11-26T20:44:15.524Z,4.90
2017-11-26T20:46:43.750Z,4.67
2017-11-26T20:49:12.002Z,5.53
2017-11-26T20:51:39.468Z,5.00
2017-11-26T20:54:06.951Z,5.27
2017-11-26T20:56:34.418Z,5.03
2017-11-26T20:59:01.881Z,5.27
2017-11-26T21:01:29.330Z,6.13
2017-11-26T21:03:56.817Z,4.97
2017-11-26T21:06:24.338Z,5.53
2017-11-26T21:08:51.790Z,5.37
2017-11-26T21:11:20.006Z,5.27
2017-11-26T21:13:47.472Z,5.90
2017-11-26T21:16:14.926Z,5.60
2017-11-26T21:18:42.403Z,5.77
2017-11-26T21:21:09.872Z,5.83
2017-11-26T21:23:37.352Z,6.63
2017-11-26T21:26:04.823Z,5.87
2017-11-26T21:28:32.275Z,6.83
2017-11-26T21:30:59.759Z,6.50
2017-11-26T21:33:27.209Z,6.77
2017-11-26T21:35:54.669Z,7.37
2017-11-26T21:38:22.114Z,6.53
2017-11-26T21:40:49.578Z,7.37
2017-11-26T21:43:17.047Z,7.40
2017-11-26T21:45:44.542Z,6.50
2017-11-26T21:48:12.787Z,7.30
2017-11-26T21:50:40.250Z,6.57
2017-11-26T21:53:07.717Z,7.13
2017-11-26T21:55:35.191Z,6.47
2017-11-26T21:58:02.709Z,6.70
2017-11-26T22:00:30.189Z,6.67
2017-11-26T22:02:57.672Z,7.20
2017-11-26T22:05:25.155Z,6.93
2017-11-26T22:07:53.401Z,7.13
2017-11-26T22:10:20.858Z,7.57
2017-11-26T22:12:48.312Z,6.63
2017-11-26T22:15:15.786Z,6.90
2017-11-26T22:17:43.247Z,6.43
2017-11-26T22:20:10.714Z,6.60
2017-11-26T22:22:38.175Z,6.60
2017-11-26T22:25:05.658Z,6.47
2017-11-26T22:27:33.124Z,5.80
2017-11-26T22:30:00.612Z,6.27
2017-11-26T22:32:28.851Z,6.50
2017-11-26T22:34:56.326Z,6.60
2017-11-26T22:37:23.786Z,6.97
2017-11-26T22:39:51.234Z,6.47
2017-11-26T22:42:18.687Z,6.17
2017-11-26T22:44:46.155Z,7.30
2017-11-26T22:47:13.622Z,6.57
2017-11-26T22:49:41.076Z,6.83
2017-11-26T22:52:08.534Z,7.00
2017-11-26T22:54:35.990Z,6.63
2017-11-26T22:57:03.463Z,6.67
2017-11-26T22:59:30.937Z,7.17
2017-11-26T23:01:58.495Z,6.60
2017-11-26T23:04:25.962Z,7.40
2017-11-26T23:06:53.429Z,7.60
2017-11-26T23:09:20.898Z,6.20
2017-11-26T23:11:48.377Z,7.30
2017-11-26T23:14:15.839Z,7.37
2017-11-26T23:16:43.313Z,6.87
2017-11-26T23:19:10.800Z,7.23
2017-11-26T23:21:39.020Z,6.80
2017-11-26T23:24:06.467Z,6.97
2017-11-26T23:26:33.941Z,7.23
2017-11-26T23:29:01.415Z,7.20
2017-11-26T23:31:28.875Z,7.23
2017-11-26T23:33:56.330Z,7.53
2017-11-26T23:36:23.790Z,7.47
2017-11-26T23:38:51.238Z,6.87
2017-11-26T23:41:18.691Z,7.27
2017-11-26T23:43:46.151Z,7.90
2017-11-26T23:46:14.406Z,7.20
2017-11-26T23:48:41.871Z,6.93
2017-11-26T23:51:09.326Z,7.67
2017-11-26T23:53:36.805Z,7.83
2017-11-26T23:56:05.040Z,6.73
2017-11-26T23:58:32.498Z,7.47
